Time;durP1;ratioP1;P1;durP2;ratioP2;P2;SDS_P1;SDS_P2;PMS_P1;PMS_P2;Temp;Humidity;BMP_temperature;BMP_pressure;BME280_temperature;BME280_humidity;BME280_pressure;Samples;Min_cycle;Max_cycle;Signal;HPM_P1;HPM_P2
2021/10/11 00:00:42;;;;;;;19.20;11.40;;;;;;;2.36;73.86;100449.50;1615324;87;21016;-90
2021/10/11 00:03:11;;;;;;;19.50;10.50;;;;;;;2.40;73.85;100446.05;1632931;86;20996;-90
2021/10/11 00:05:37;;;;;;;14.03;10.40;;;;;;;2.42;73.98;100436.59;1634024;86;21365;-90
2021/10/11 00:08:05;;;;;;;16.90;11.40;;;;;;;2.48;73.99;100445.18;1637235;86;20932;-89
2021/10/11 00:10:31;;;;;;;15.48;10.38;;;;;;;2.52;74.01;100440.42;1623970;86;21555;-90
2021/10/11 00:12:58;;;;;;;16.70;11.60;;;;;;;2.55;74.05;100441.70;1621492;86;21988;-89
2021/10/11 00:15:27;;;;;;;15.03;11.12;;;;;;;2.58;74.02;100440.44;1627195;86;20990;-90
2021/10/11 00:17:55;;;;;;;16.35;11.33;;;;;;;2.61;74.02;100433.98;1624837;86;21573;-89
2021/10/11 00:20:22;;;;;;;17.80;10.82;;;;;;;2.63;73.99;100433.52;1636100;84;20936;-90
2021/10/11 00:22:49;;;;;;;17.65;11.88;;;;;;;2.63;73.95;100431.82;1603281;87;21018;-89
2021/10/11 00:25:16;;;;;;;18.15;11.40;;;;;;;2.65;73.97;100430.51;1625092;86;21083;-90
2021/10/11 00:27:44;;;;;;;20.40;11.93;;;;;;;2.65;74.01;100430.51;1638250;85;20959;-90
2021/10/11 00:30:13;;;;;;;17.52;11.40;;;;;;;2.67;74.01;100427.50;1617009;87;21559;-90
2021/10/11 00:32:41;;;;;;;18.95;11.63;;;;;;;2.67;74.00;100423.63;1617589;86;21032;-89
2021/10/11 00:35:08;;;;;;;17.07;11.33;;;;;;;2.64;73.98;100424.50;1592662;86;20920;-90
2021/10/11 00:37:35;;;;;;;14.43;11.05;;;;;;;2.61;74.02;100421.09;1619251;86;21068;-90
2021/10/11 00:40:01;;;;;;;16.50;10.60;;;;;;;2.59;74.04;100422.36;1612179;86;21042;-91
2021/10/11 00:42:33;;;;;;;20.32;11.73;;;;;;;2.57;74.08;100418.08;1597720;87;20904;-90
2021/10/11 00:44:57;;;;;;;15.93;10.78;;;;;;;2.56;74.13;100424.11;1615587;86;20934;-90
2021/10/11 00:47:24;;;;;;;16.97;11.20;;;;;;;2.53;74.10;100415.95;1621646;86;20939;-90
2021/10/11 00:49:50;;;;;;;18.00;11.47;;;;;;;2.51;74.13;100411.66;1636891;86;21963;-90
2021/10/11 00:52:17;;;;;;;19.65;12.40;;;;;;;2.50;74.18;100409.95;1631962;86;20971;-90
2021/10/11 00:54:45;;;;;;;34.75;21.12;;;;;;;2.47;74.17;100400.51;1632540;86;20955;-89
2021/10/11 00:57:12;;;;;;;24.95;13.93;;;;;;;2.46;74.21;100402.23;1639613;86;20937;-90
2021/10/11 00:59:41;;;;;;;21.82;13.58;;;;;;;2.44;74.28;100392.34;1639860;86;21609;-90
2021/10/11 01:02:08;;;;;;;16.95;12.45;;;;;;;2.42;74.40;100385.05;1617077;86;21841;-90
2021/10/11 01:04:35;;;;;;;17.27;11.08;;;;;;;2.42;74.36;100378.60;1630411;86;21026;-90
2021/10/11 01:07:03;;;;;;;15.95;11.80;;;;;;;2.42;74.41;100379.89;1613113;86;21028;-90
2021/10/11 01:09:30;;;;;;;18.57;12.43;;;;;;;2.44;74.44;100371.73;1616964;86;21562;-90
2021/10/11 01:11:59;;;;;;;18.37;12.63;;;;;;;2.46;74.49;100367.84;1638756;85;20947;-90
2021/10/11 01:14:25;;;;;;;16.50;12.28;;;;;;;2.48;74.47;100360.12;1635722;86;21894;-91
2021/10/11 01:16:52;;;;;;;21.23;14.13;;;;;;;2.49;74.48;100361.82;1637123;86;20924;-91
2021/10/11 01:19:19;;;;;;;19.92;13.38;;;;;;;2.50;74.52;100348.09;1632352;86;20948;-90
2021/10/11 01:21:45;;;;;;;19.95;12.03;;;;;;;2.54;74.59;100347.20;1634606;85;20966;-90
2021/10/11 01:24:12;;;;;;;17.00;11.97;;;;;;;2.56;74.61;100337.74;1642486;84;22063;-90
2021/10/11 01:26:44;;;;;;;17.32;12.58;;;;;;;2.60;74.61;100339.42;1639458;84;21053;-91
2021/10/11 01:29:14;;;;;;;22.82;12.70;;;;;;;2.61;74.62;100339.88;1608053;87;20991;-91
2021/10/11 01:31:42;;;;;;;21.82;13.03;;;;;;;2.63;74.65;100336.42;1633266;86;20963;-91
2021/10/11 01:34:09;;;;;;;;;;;;;;;2.70;74.71;100333.37;1599076;86;21047;-90
2021/10/11 01:36:35;;;;;;;21.23;12.20;;;;;;;2.76;74.86;100330.75;1625642;86;24438;-92
2021/10/11 01:39:06;;;;;;;19.95;11.70;;;;;;;2.83;74.92;100329.86;1640131;84;21060;-91
2021/10/11 01:41:34;;;;;;;16.45;11.93;;;;;;;2.90;74.86;100325.07;1621580;86;20995;-91
2021/10/11 01:44:00;;;;;;;18.55;12.53;;;;;;;2.97;74.83;100329.78;1600260;87;20923;-91
2021/10/11 01:46:27;;;;;;;19.73;11.77;;;;;;;3.03;74.87;100315.98;1630915;86;20923;-90
2021/10/11 01:48:54;;;;;;;21.48;14.00;;;;;;;3.11;74.91;100306.47;1631121;86;21004;-91
2021/10/11 01:51:22;;;;;;;18.57;13.00;;;;;;;3.18;74.90;100302.95;1629859;86;20991;-91
2021/10/11 01:53:50;;;;;;;23.20;14.58;;;;;;;3.25;74.92;100302.05;1623847;86;20954;-90
2021/10/11 01:56:17;;;;;;;19.57;13.58;;;;;;;3.30;74.88;100297.68;1627208;86;21147;-90
2021/10/11 01:58:45;;;;;;;20.95;13.38;;;;;;;3.34;74.84;100298.09;1631155;86;21102;-90
2021/10/11 02:01:11;;;;;;;20.60;13.90;;;;;;;3.40;74.86;100297.63;1629378;86;20998;-90
2021/10/11 02:03:38;;;;;;;19.67;14.13;;;;;;;3.46;74.90;100297.56;1625971;86;21475;-90
2021/10/11 02:06:05;;;;;;;24.20;13.88;;;;;;;3.50;74.88;100283.74;1626770;86;20912;-90
2021/10/11 02:08:32;;;;;;;22.45;13.95;;;;;;;3.59;74.92;100283.67;1625121;86;20964;-90
2021/10/11 02:10:58;;;;;;;21.42;13.05;;;;;;;3.65;74.85;100281.03;1622489;86;20978;-90
2021/10/11 02:13:25;;;;;;;18.20;13.15;;;;;;;3.69;74.58;100273.66;1618683;86;21031;-90
2021/10/11 02:15:52;;;;;;;18.85;13.00;;;;;;;3.74;74.78;100279.63;1615895;87;21036;-90
2021/10/11 02:18:19;;;;;;;18.35;13.38;;;;;;;3.77;74.74;100269.27;1610573;86;21019;-90
2021/10/11 02:20:46;;;;;;;20.97;13.93;;;;;;;3.78;74.74;100261.95;1615071;87;20990;-90
2021/10/11 02:23:12;;;;;;;28.10;13.70;;;;;;;3.79;74.73;100251.18;1610729;87;20890;-90
2021/10/11 02:25:39;;;;;;;18.50;13.20;;;;;;;3.77;74.71;100255.06;1614123;86;21002;-90
2021/10/11 02:28:06;;;;;;;17.27;12.50;;;;;;;3.76;74.73;100249.48;1616088;86;21089;-90
2021/10/11 02:30:33;;;;;;;21.45;12.78;;;;;;;3.74;74.69;100252.52;1616431;87;20923;-90
2021/10/11 02:32:59;;;;;;;20.97;13.40;;;;;;;3.73;74.70;100240.48;1616410;86;20891;-90
2021/10/11 02:35:26;;;;;;;16.55;12.43;;;;;;;3.73;74.74;100237.05;1617701;86;21017;-91
2021/10/11 02:37:53;;;;;;;16.20;12.77;;;;;;;3.72;74.74;100231.00;1616046;86;21493;-91
2021/10/11 02:40:20;;;;;;;18.30;12.30;;;;;;;3.71;74.73;100221.56;1597049;87;21056;-90
2021/10/11 02:42:46;;;;;;;21.20;13.73;;;;;;;3.72;74.76;100212.08;1613982;86;20982;-90
2021/10/11 02:45:14;;;;;;;17.43;12.60;;;;;;;3.73;74.79;100206.91;1614477;86;20959;-91
2021/10/11 02:47:40;;;;;;;16.67;11.85;;;;;;;3.74;74.78;100193.11;1616262;86;20895;-89
2021/10/11 02:50:08;;;;;;;21.48;12.65;;;;;;;3.76;74.80;100190.52;1620774;86;20987;-90
2021/10/11 02:52:36;;;;;;;21.85;13.35;;;;;;;3.78;74.81;100192.22;1608881;87;21269;-90
2021/10/11 02:55:05;;;;;;;20.05;12.40;;;;;;;3.80;74.81;100183.98;1619453;86;21010;-91
2021/10/11 02:57:32;;;;;;;14.58;10.78;;;;;;;3.83;74.84;100175.79;1599534;87;21026;-90
2021/10/11 02:59:58;;;;;;;16.25;11.68;;;;;;;3.84;74.82;100172.33;1618950;86;20946;-91
2021/10/11 03:02:25;;;;;;;19.15;11.88;;;;;;;3.88;74.80;100163.67;1615884;86;21381;-90
2021/10/11 03:04:51;;;;;;;24.67;11.97;;;;;;;3.90;74.81;100164.52;1637287;86;21128;-91
2021/10/11 03:07:19;;;;;;;20.92;11.80;;;;;;;3.94;74.77;100166.17;1616885;86;20939;-91
2021/10/11 03:09:46;;;;;;;22.22;11.15;;;;;;;3.98;74.77;100162.69;1637663;85;20919;-91
2021/10/11 03:12:13;;;;;;;18.98;12.47;;;;;;;4.01;74.73;100169.95;1632154;86;20923;-90
2021/10/11 03:14:40;;;;;;;19.77;12.98;;;;;;;4.06;74.71;100163.41;1614851;86;20967;-90
2021/10/11 03:17:07;;;;;;;18.93;12.87;;;;;;;4.09;74.67;100165.98;1622546;86;21833;-90
2021/10/11 03:19:34;;;;;;;18.97;12.80;;;;;;;4.10;74.63;100163.81;1617864;87;20945;-91
2021/10/11 03:22:01;;;;;;;19.42;11.35;;;;;;;4.11;74.59;100159.05;1617752;86;21947;-91
2021/10/11 03:24:27;;;;;;;14.95;11.18;;;;;;;4.09;74.56;100155.65;1619160;86;21452;-91
2021/10/11 03:26:54;;;;;;;18.55;11.93;;;;;;;4.08;74.54;100153.92;1619511;87;21474;-91
2021/10/11 03:29:21;;;;;;;22.93;11.83;;;;;;;4.06;74.53;100141.45;1634485;85;21040;-90
2021/10/11 03:31:48;;;;;;;16.23;11.93;;;;;;;4.05;74.49;100138.46;1625477;86;20960;-91
2021/10/11 03:34:14;;;;;;;18.73;12.45;;;;;;;4.02;74.46;100139.36;1628259;86;21597;-89
2021/10/11 03:36:42;;;;;;;20.57;11.90;;;;;;;4.00;74.44;100129.91;1627347;86;20950;-90
2021/10/11 03:39:08;;;;;;;18.82;12.35;;;;;;;3.95;74.35;100125.24;1622861;86;21001;-91
2021/10/11 03:41:35;;;;;;;21.75;12.28;;;;;;;3.90;74.37;100128.35;1622218;86;21080;-90
2021/10/11 03:44:05;;;;;;;17.82;12.80;;;;;;;3.83;74.33;100117.67;1628537;86;22815;-90
2021/10/11 03:46:31;;;;;;;22.48;13.20;;;;;;;3.75;74.32;100117.36;1623556;86;21481;-90
2021/10/11 03:48:58;;;;;;;18.75;13.18;;;;;;;3.66;74.35;100101.95;1621049;86;21008;-91
2021/10/11 03:51:24;;;;;;;23.20;13.50;;;;;;;3.58;74.34;100101.20;1620167;86;21377;-91
2021/10/11 03:53:51;;;;;;;21.07;14.03;;;;;;;3.50;74.38;100102.61;1622885;86;21251;-90
2021/10/11 03:56:18;;;;;;;21.27;14.10;;;;;;;3.34;74.39;100081.27;1623661;86;20902;-90
2021/10/11 03:58:44;;;;;;;21.35;12.50;;;;;;;3.41;74.40;100092.81;1622490;86;21102;-91
2021/10/11 04:01:11;;;;;;;17.27;12.70;;;;;;;3.36;74.44;100091.16;1623191;87;21014;-90
2021/10/11 04:03:38;;;;;;;23.62;13.25;;;;;;;3.35;74.54;100081.69;1622577;86;21007;-91
2021/10/11 04:06:04;;;;;;;21.07;13.95;;;;;;;3.36;74.59;100075.67;1631926;86;21063;-90
2021/10/11 04:08:37;;;;;;;21.23;12.13;;;;;;;3.40;74.61;100076.48;1620653;86;21030;-91
2021/10/11 04:11:11;;;;;;;22.00;12.88;;;;;;;3.43;74.66;100073.01;1622109;87;20987;-89
2021/10/11 04:13:39;;;;;;;21.10;12.70;;;;;;;3.47;74.68;100067.77;1619621;86;20990;-90
2021/10/11 04:16:06;;;;;;;19.75;12.40;;;;;;;3.51;74.66;100068.60;1627444;87;20931;-90
2021/10/11 04:18:33;;;;;;;;;;;;;;;3.55;74.69;100059.93;1632783;87;21068;-91
2021/10/11 04:21:00;;;;;;;26.93;13.25;;;;;;;3.60;74.74;100064.59;1623517;86;20305;-91
2021/10/11 04:23:27;;;;;;;28.20;12.10;;;;;;;3.64;74.71;100067.58;1625205;86;21497;-91
2021/10/11 04:25:54;;;;;;;15.68;12.28;;;;;;;3.69;74.70;100065.76;1624443;86;28225;-90
2021/10/11 04:28:21;;;;;;;19.25;11.43;;;;;;;3.77;74.67;100058.76;1620917;86;21524;-91
2021/10/11 04:30:47;;;;;;;20.32;12.55;;;;;;;3.85;74.69;100050.06;1622478;86;21089;-91
2021/10/11 04:33:15;;;;;;;20.62;10.93;;;;;;;3.89;74.62;100046.54;1624243;86;21510;-91
2021/10/11 04:35:45;;;;;;;20.68;11.90;;;;;;;3.93;74.56;100048.22;1625107;87;21461;-91
2021/10/11 04:38:12;;;;;;;18.98;12.40;;;;;;;3.96;74.52;100050.76;1617453;86;20943;-90
2021/10/11 04:40:43;;;;;;;16.52;11.45;;;;;;;3.96;74.50;100049.02;1625355;86;20934;-91
2021/10/11 04:43:11;;;;;;;19.80;11.45;;;;;;;3.99;74.46;100057.17;1627018;86;21869;-91
2021/10/11 04:45:50;;;;;;;20.10;11.85;;;;;;;4.01;74.46;100048.96;1623680;86;24716;-90
2021/10/11 04:48:16;;;;;;;18.37;12.40;;;;;;;4.03;74.43;100049.77;1620318;86;20979;-90
2021/10/11 04:50:45;;;;;;;20.60;11.38;;;;;;;4.04;74.41;100038.58;1627103;86;20958;-91
2021/10/11 04:53:12;;;;;;;14.87;10.82;;;;;;;4.04;74.38;100043.74;1627446;86;21479;-90
2021/10/11 04:55:40;;;;;;;21.65;11.95;;;;;;;4.05;74.37;100051.90;1626025;86;21530;-91
2021/10/11 04:58:07;;;;;;;19.30;11.33;;;;;;;4.07;74.39;100038.52;1620615;86;20982;-90
2021/10/11 05:00:36;;;;;;;20.40;12.27;;;;;;;4.08;74.40;100037.63;1627862;86;20943;-89
2021/10/11 05:03:05;;;;;;;19.50;11.73;;;;;;;4.07;74.37;100042.40;1630467;86;20994;-89
2021/10/11 05:05:32;;;;;;;19.60;12.78;;;;;;;4.07;74.35;100046.28;1624243;86;20982;-85
2021/10/11 05:07:59;;;;;;;;;;;;;;;4.06;74.37;100039.38;1630289;86;21769;-91
2021/10/11 05:10:36;;;;;;;19.90;11.30;;;;;;;4.05;74.33;100038.98;1629079;86;20471;-90
2021/10/11 05:13:05;;;;;;;19.17;12.00;;;;;;;4.04;74.31;100032.96;1605554;86;20982;-90
2021/10/11 05:15:39;;;;;;;28.85;12.03;;;;;;;4.05;74.31;100029.94;1626908;86;21006;-89
2021/10/11 05:18:07;;;;;;;21.85;12.10;;;;;;;4.07;74.33;100028.19;1625823;86;21648;-89
2021/10/11 05:20:45;;;;;;;21.35;11.78;;;;;;;4.07;74.30;100017.85;1618166;86;21078;-76
2021/10/11 05:23:18;;;;;;;18.92;13.15;;;;;;;4.08;74.29;100024.72;1622658;86;20967;-79
2021/10/11 05:25:46;;;;;;;20.60;12.95;;;;;;;4.08;74.26;100027.30;1639157;84;21472;-79
2021/10/11 05:28:16;;;;;;;21.57;12.80;;;;;;;4.08;74.29;100024.72;1639610;84;20964;-79
2021/10/11 05:30:43;;;;;;;23.40;12.47;;;;;;;4.08;74.24;100019.55;1599639;87;20995;-78
2021/10/11 05:33:22;;;;;;;;;;;;;;;;;;;;;
2021/10/11 05:35:42;;;;;;;15.32;11.18;;;;;;;4.07;74.21;100007.52;1631777;86;20903;-78
2021/10/11 05:38:10;;;;;;;20.85;13.18;;;;;;;4.08;74.19;100007.92;1635058;86;21521;-78
2021/10/11 05:40:41;;;;;;;20.08;12.58;;;;;;;4.08;74.25;100005.33;1633350;86;21051;-76
2021/10/11 05:43:22;;;;;;;22.67;13.03;;;;;;;4.11;74.26;100002.70;1634742;86;20942;-76
2021/10/11 05:45:51;;;;;;;22.75;12.35;;;;;;;4.14;74.30;99997.48;1616290;86;20983;-76
2021/10/11 05:48:27;;;;;;;20.37;12.95;;;;;;;4.18;74.27;99993.98;1622630;86;20971;-77
2021/10/11 05:50:57;;;;;;;20.68;12.65;;;;;;;4.21;74.24;99987.46;1611446;86;21035;-77
2021/10/11 05:53:29;;;;;;;17.55;13.45;;;;;;;4.28;74.27;99983.03;1617194;86;21999;-78
2021/10/11 05:56:09;;;;;;;19.37;12.33;;;;;;;4.36;74.27;99982.91;1597630;86;21091;-76
2021/10/11 05:58:32;;;;;;;19.95;12.80;;;;;;;4.40;74.15;99988.00;1617207;86;21085;-76
2021/10/11 06:01:05;;;;;;;17.27;12.90;;;;;;;4.44;74.22;99979.30;1606988;86;20922;-76
2021/10/11 06:03:35;;;;;;;21.50;12.73;;;;;;;4.51;74.27;99968.84;1609624;86;20972;-78
2021/10/11 06:06:02;;;;;;;28.83;14.50;;;;;;;4.57;74.27;99964.42;1623699;86;20935;-78
2021/10/11 06:08:30;;;;;;;20.92;13.40;;;;;;;4.63;74.18;99969.47;1603670;87;21027;-77
2021/10/11 06:11:19;;;;;;;;;;;;;;;;;;;;;
2021/10/11 06:13:35;;;;;;;20.08;12.43;;;;;;;4.89;74.19;99952.58;1580307;86;20976;-76
2021/10/11 06:16:08;;;;;;;22.67;12.30;;;;;;;5.05;74.13;99941.03;1615237;86;21061;-79
2021/10/11 06:18:43;;;;;;;18.32;12.53;;;;;;;5.36;74.20;99942.95;1624070;86;20992;-79
2021/10/11 06:21:10;;;;;;;22.32;12.90;;;;;;;5.50;73.93;99943.49;1616988;86;20903;-74
2021/10/11 06:23:45;;;;;;;18.50;12.20;;;;;;;5.55;73.74;99935.62;1620814;86;21920;-75
2021/10/11 06:26:12;;;;;;;28.40;13.53;;;;;;;5.58;73.65;99935.55;1616150;86;21003;-77
2021/10/11 06:28:59;;;;;;;35.10;13.18;;;;;;;5.61;73.71;99927.70;1613930;86;20975;-75
2021/10/11 06:31:28;;;;;;;19.20;12.55;;;;;;;5.68;73.63;99934.88;1610947;86;20963;-74
2021/10/11 06:33:53;;;;;;;19.62;13.38;;;;;;;5.72;73.67;99926.16;1609396;86;20975;-74
2021/10/11 06:36:40;;;;;;;18.95;12.13;;;;;;;5.77;73.71;99917.80;1619541;86;21506;-75
2021/10/11 06:39:09;;;;;;;31.77;12.98;;;;;;;5.80;73.50;99915.17;1621090;86;22284;-76
2021/10/11 06:41:50;;;;;;;24.77;13.72;;;;;;;5.85;73.55;99910.70;1639105;86;21038;-76
2021/10/11 06:44:23;;;;;;;21.50;12.90;;;;;;;5.88;73.54;99906.77;1641053;86;21928;-78
2021/10/11 06:46:51;;;;;;;22.02;12.80;;;;;;;5.96;73.49;99903.53;1638875;86;21630;-79
2021/10/11 06:49:20;;;;;;;30.62;12.85;;;;;;;6.02;73.42;99902.11;1609139;88;20984;-79
2021/10/11 06:52:00;;;;;;;21.85;12.85;;;;;;;6.07;73.35;99905.86;1607257;87;21462;-77
2021/10/11 06:54:28;;;;;;;25.90;13.55;;;;;;;6.13;73.37;99900.95;1602745;88;20909;-80
2021/10/11 06:57:08;;;;;;;32.67;14.07;;;;;;;6.15;73.30;99910.40;1604373;87;21009;-81
2021/10/11 06:59:38;;;;;;;19.30;12.95;;;;;;;6.16;73.27;99913.42;1610887;87;20963;-79
2021/10/11 07:02:09;;;;;;;28.17;16.55;;;;;;;6.18;73.21;99912.06;1610628;88;21007;-79
2021/10/11 07:05:07;;;;;;;;;;;;;;;;;;;;;
2021/10/11 07:08:04;;;;;;;;;;;;;;;;;;;;;
2021/10/11 07:10:45;;;;;;;29.87;15.65;;;;;;;6.25;73.20;99904.55;1604229;87;20975;-80
2021/10/11 07:13:17;;;;;;;33.10;16.60;;;;;;;6.30;73.28;99902.65;1594288;88;21041;-79
2021/10/11 07:16:03;;;;;;;26.33;15.60;;;;;;;6.39;73.22;99912.80;1594349;88;20966;-79
2021/10/11 07:18:27;;;;;;;37.00;18.55;;;;;;;6.42;73.08;99911.41;1573409;88;27060;-77
2021/10/11 07:20:53;;;;;;;33.10;17.48;;;;;;;6.49;72.99;99911.64;1600667;88;21494;-79
2021/10/11 07:23:20;;;;;;;50.00;18.10;;;;;;;6.57;73.15;99911.43;1599771;88;21498;-77
2021/10/11 07:25:47;;;;;;;55.78;16.95;;;;;;;6.66;73.10;99915.52;1597306;88;20951;-77
2021/10/11 07:28:14;;;;;;;44.10;16.17;;;;;;;6.73;73.00;99909.27;1600486;88;22236;-80
2021/10/11 07:30:48;;;;;;;29.70;12.35;;;;;;;6.79;72.91;99905.64;1602918;88;21058;-77
2021/10/11 07:33:27;;;;;;;20.00;12.45;;;;;;;6.86;72.92;99905.43;1598867;88;21535;-77
2021/10/11 07:36:10;;;;;;;26.17;15.00;;;;;;;6.90;72.72;99901.84;1601853;88;20973;-78
2021/10/11 07:38:25;;;;;;;19.42;12.98;;;;;;;6.94;72.67;99899.53;1592976;87;21022;-78
2021/10/11 07:40:55;;;;;;;30.23;16.12;;;;;;;6.99;72.65;99894.22;1602732;87;21896;-77
2021/10/11 07:43:26;;;;;;;28.30;13.18;;;;;;;7.06;72.80;99898.80;1596116;88;20986;-79
2021/10/11 07:46:01;;;;;;;28.23;14.73;;;;;;;7.16;72.77;99889.81;1601689;88;20923;-78
2021/10/11 07:48:28;;;;;;;28.12;12.98;;;;;;;7.23;72.57;99893.94;1601920;86;21560;-79
2021/10/11 07:50:57;;;;;;;17.82;11.60;;;;;;;7.28;72.53;99893.36;1618088;86;20925;-77
2021/10/11 07:53:24;;;;;;;25.05;12.30;;;;;;;7.35;72.56;99897.45;1623651;86;21182;-76
2021/10/11 07:55:54;;;;;;;21.35;12.40;;;;;;;7.45;72.58;99897.14;1623716;86;21012;-73
2021/10/11 07:58:24;;;;;;;16.62;12.33;;;;;;;7.54;72.54;99890.38;1623655;86;20958;-74
2021/10/11 08:00:53;;;;;;;19.23;11.88;;;;;;;7.63;72.43;99882.28;1623003;86;20968;-76
2021/10/11 08:03:26;;;;;;;19.82;11.55;;;;;;;7.69;72.28;99884.67;1619046;86;21001;-83
2021/10/11 08:05:53;;;;;;;16.57;11.95;;;;;;;7.76;72.28;99880.14;1622443;86;20956;-70
2021/10/11 08:08:20;;;;;;;18.77;11.55;;;;;;;7.80;72.06;99887.77;1622108;86;20883;-68
2021/10/11 08:10:47;;;;;;;;;;;;;;;7.82;71.97;99880.77;1621409;86;20914;-78
2021/10/11 08:13:20;;;;;;;19.50;12.43;;;;;;;7.83;71.84;99875.96;1626756;86;20138;-73
2021/10/11 08:15:57;;;;;;;18.52;12.18;;;;;;;7.89;71.91;99876.66;1622900;86;20980;-73
2021/10/11 08:18:27;;;;;;;18.37;12.03;;;;;;;7.97;71.94;99868.16;1616972;86;21060;-78
2021/10/11 08:20:56;;;;;;;17.62;12.37;;;;;;;8.05;71.92;99868.74;1609951;87;20892;-75
2021/10/11 08:23:23;;;;;;;20.12;13.43;;;;;;;8.10;71.71;99864.23;1623773;86;21537;-73
2021/10/11 08:25:51;;;;;;;20.95;12.60;;;;;;;8.15;71.65;99855.83;1632986;86;20962;-91
2021/10/11 08:28:22;;;;;;;20.95;11.78;;;;;;;8.23;71.62;99851.63;1628585;86;21006;-81
2021/10/11 08:30:50;;;;;;;26.52;13.60;;;;;;;8.30;71.54;99856.57;1622090;86;21132;-84
2021/10/11 08:33:17;;;;;;;18.62;12.50;;;;;;;8.35;71.42;99846.47;1631011;85;20951;-76
2021/10/11 08:35:44;;;;;;;17.90;11.53;;;;;;;8.38;71.29;99837.25;1615552;87;21034;-78
2021/10/11 08:38:11;;;;;;;20.43;11.80;;;;;;;8.40;71.31;99838.05;1622760;86;21034;-82
2021/10/11 08:40:38;;;;;;;28.98;12.90;;;;;;;8.49;71.28;99845.55;1624034;86;20939;-90
2021/10/11 08:43:05;;;;;;;18.37;12.25;;;;;;;8.61;71.42;99846.38;1603745;88;21093;-80
2021/10/11 08:45:32;;;;;;;27.45;14.55;;;;;;;8.75;71.33;99839.36;1625936;86;21039;-81
2021/10/11 08:48:00;;;;;;;31.62;14.10;;;;;;;8.90;71.40;99832.25;1626174;86;21015;-79
2021/10/11 08:50:27;;;;;;;19.60;13.32;;;;;;;9.04;71.10;99831.71;1642039;85;21005;-81
2021/10/11 08:52:54;;;;;;;18.62;12.33;;;;;;;9.10;70.90;99827.59;1624116;86;21580;-83
2021/10/11 08:55:21;;;;;;;19.27;12.15;;;;;;;9.19;70.74;99814.19;1620764;87;21585;-84
2021/10/11 08:58:00;;;;;;;24.50;14.78;;;;;;;9.19;70.74;99814.19;1630884;86;21451;-83
2021/10/11 09:00:32;;;;;;;25.32;13.65;;;;;;;9.18;70.23;99825.50;1632423;85;20994;-84
2021/10/11 09:03:01;;;;;;;26.00;13.53;;;;;;;9.16;70.61;99819.52;1638156;85;21482;-84
2021/10/11 09:05:37;;;;;;;55.88;15.98;;;;;;;9.19;70.40;99836.80;1612001;87;20982;-84
2021/10/11 09:08:13;;;;;;;23.57;15.13;;;;;;;9.23;70.51;99836.21;1646449;85;21968;-83
2021/10/11 09:11:00;;;;;;;33.23;16.02;;;;;;;9.27;70.58;99837.77;1642624;85;22125;-78
2021/10/11 09:13:40;;;;;;;36.15;16.35;;;;;;;9.32;70.42;99842.34;1639489;85;21505;-80
2021/10/11 09:19:29;;;;;;;22.70;13.65;;;;;;;9.35;70.02;99841.79;1613169;87;21117;-80
2021/10/11 09:22:07;;;;;;;18.25;13.43;;;;;;;9.35;69.92;99835.27;1606923;88;21691;-80
2021/10/11 09:24:49;;;;;;;;;;;;;;;;;;;;;
2021/10/11 09:27:11;;;;;;;21.15;13.15;;;;;;;9.31;69.85;99836.29;1613394;87;21671;-75
2021/10/11 09:29:51;;;;;;;22.90;13.50;;;;;;;9.28;69.71;99823.84;1615223;87;21012;-74
2021/10/11 09:32:16;;;;;;;19.07;12.30;;;;;;;9.25;69.87;99817.46;1614842;87;20963;-73
2021/10/11 09:34:43;;;;;;;20.95;13.18;;;;;;;9.23;69.81;99814.06;1618235;87;21048;-75
2021/10/11 09:37:13;;;;;;;28.12;13.78;;;;;;;9.17;69.53;99806.88;1619588;87;20929;-76
2021/10/11 09:39:42;;;;;;;28.77;12.88;;;;;;;9.03;69.33;99807.89;1618368;87;20937;-79
2021/10/11 09:42:16;;;;;;;21.07;12.68;;;;;;;8.94;69.44;99800.45;1623568;87;20939;-77
2021/10/11 09:44:55;;;;;;;48.90;15.40;;;;;;;8.88;69.65;99807.20;1620727;87;20945;-79
2021/10/11 09:47:38;;;;;;;28.57;13.83;;;;;;;8.83;69.48;99802.63;1610599;87;21064;-81
2021/10/11 09:50:09;;;;;;;35.13;14.85;;;;;;;8.74;69.42;99796.86;1589811;88;20937;-83
2021/10/11 09:52:51;;;;;;;20.30;11.78;;;;;;;8.67;69.48;99797.14;1592476;88;20945;-85
2021/10/11 09:55:17;;;;;;;26.37;12.65;;;;;;;8.60;69.26;99795.24;1615358;86;20969;-82
2021/10/11 09:57:45;;;;;;;23.87;12.03;;;;;;;8.69;69.69;99796.19;1625968;86;20978;-79
2021/10/11 10:00:13;;;;;;;40.92;12.68;;;;;;;8.91;69.85;99781.05;1596126;87;21144;-82
2021/10/11 10:02:50;;;;;;;118.75;19.40;;;;;;;9.14;69.73;99782.26;1624738;86;20922;-82
2021/10/11 10:05:27;;;;;;;90.00;17.25;;;;;;;9.36;69.83;99776.19;1598566;87;21044;-82
2021/10/11 10:07:56;;;;;;;135.25;24.43;;;;;;;9.58;69.61;99778.28;1628604;85;20978;-77
2021/10/11 10:10:33;;;;;;;78.28;23.15;;;;;;;9.86;69.78;99779.72;1631326;86;20977;-77
2021/10/11 10:13:16;;;;;;;63.05;16.52;;;;;;;10.04;69.58;99778.89;1623961;85;21899;-79
2021/10/11 10:15:43;;;;;;;25.97;13.15;;;;;;;10.24;69.48;99773.25;1627388;86;20995;-78
2021/10/11 10:18:14;;;;;;;56.85;14.98;;;;;;;10.36;69.10;99764.87;1605061;87;21014;-78
2021/10/11 10:20:56;;;;;;;58.98;16.32;;;;;;;10.45;69.12;99760.56;1622944;86;21022;-77
2021/10/11 10:23:36;;;;;;;56.13;14.30;;;;;;;10.50;68.83;99762.51;1630168;86;20970;-84
2021/10/11 10:26:11;;;;;;;30.10;13.30;;;;;;;10.50;68.52;99759.90;1619368;87;20971;-80
2021/10/11 10:28:51;;;;;;;106.67;16.77;;;;;;;10.52;69.02;99758.05;1631079;86;20927;-80
2021/10/11 10:31:39;;;;;;;80.97;17.73;;;;;;;10.66;68.75;99748.26;1620390;86;20918;-85
2021/10/11 10:34:23;;;;;;;46.25;14.30;;;;;;;10.75;68.93;99749.59;1600386;87;22012;-86
2021/10/11 10:37:08;;;;;;;32.33;13.10;;;;;;;10.97;69.08;99738.49;1619427;86;21491;-79
2021/10/11 10:39:49;;;;;;;41.53;12.78;;;;;;;11.22;69.04;99729.92;1592623;87;21983;-80
2021/10/11 10:42:27;;;;;;;16.70;11.75;;;;;;;11.37;68.45;99729.14;1624618;86;21601;-85
2021/10/11 10:44:56;;;;;;;279.50;49.25;;;;;;;11.30;68.06;99729.92;1611931;86;20975;-79
2021/10/11 10:47:39;;;;;;;48.40;15.15;;;;;;;11.37;68.38;99725.22;1622830;86;21466;-80
2021/10/11 10:50:18;;;;;;;65.70;14.63;;;;;;;11.43;68.15;99725.77;1602735;87;21526;-82
2021/10/11 10:52:51;;;;;;;98.58;18.90;;;;;;;11.61;68.53;99715.29;1579947;88;21162;-78
2021/10/11 10:55:18;;;;;;;45.75;14.55;;;;;;;11.90;68.17;99716.41;1585697;88;20984;-75
2021/10/11 10:57:52;;;;;;;151.15;34.85;;;;;;;12.01;68.30;99707.52;1581872;89;24764;-78
2021/10/11 11:00:20;;;;;;;427.17;50.55;;;;;;;12.15;68.22;99708.09;1579918;89;20952;-77
2021/10/11 11:02:50;;;;;;;91.20;20.80;;;;;;;12.34;68.20;99705.80;1583641;88;21065;-77
2021/10/11 11:05:21;;;;;;;58.68;16.90;;;;;;;12.55;68.24;99700.70;1582335;89;21099;-77
2021/10/11 11:07:51;;;;;;;26.27;15.30;;;;;;;12.63;67.87;99700.25;1578427;87;20986;-78
2021/10/11 11:10:27;;;;;;;24.32;13.83;;;;;;;12.61;67.61;99684.62;1572399;89;21023;-78
2021/10/11 11:12:59;;;;;;;65.78;18.17;;;;;;;12.72;67.62;99695.81;1591692;88;20975;-77
2021/10/11 11:15:36;;;;;;;27.73;14.93;;;;;;;12.67;67.33;99692.14;1593186;87;20942;-79
2021/10/11 11:18:07;;;;;;;27.95;14.43;;;;;;;12.48;67.05;99693.63;1590676;89;22417;-78
2021/10/11 11:20:38;;;;;;;25.40;15.00;;;;;;;12.30;67.09;99691.57;1586920;88;20992;-80
2021/10/11 11:23:13;;;;;;;36.90;14.28;;;;;;;12.11;66.87;99693.50;1562628;90;21503;-79
2021/10/11 11:25:43;;;;;;;27.93;13.83;;;;;;;12.07;67.08;99695.44;1596460;88;20961;-86
2021/10/11 11:28:14;;;;;;;22.87;14.23;;;;;;;12.11;66.89;99685.64;1592873;88;21563;-81
2021/10/11 11:30:42;;;;;;;40.30;15.48;;;;;;;12.11;66.89;99685.64;1591184;88;21056;-79
2021/10/11 11:33:12;;;;;;;133.40;20.60;;;;;;;12.04;66.76;99697.36;1594580;88;20918;-79
2021/10/11 11:35:46;;;;;;;141.82;24.60;;;;;;;12.02;66.76;99699.23;1586521;88;20981;-78
2021/10/11 11:38:17;;;;;;;254.07;30.52;;;;;;;11.80;66.83;99662.87;1590701;88;20983;-79
2021/10/11 11:40:51;;;;;;;82.90;19.95;;;;;;;11.91;66.78;99691.11;1594469;88;20940;-77
2021/10/11 11:43:30;;;;;;;96.78;21.30;;;;;;;11.81;66.77;99692.85;1586543;88;21520;-79